Time;durP1;ratioP1;P1;durP2;ratioP2;P2;SDS_P1;SDS_P2;PMS_P1;PMS_P2;Temp;Humidity;BMP_temperature;BMP_pressure;BME280_temperature;BME280_humidity;BME280_pressure;Samples;Min_cycle;Max_cycle;Signal;HPM_P1;HPM_P2
2021/12/24 00:01:51;;;;;;;15.23;9.03;;;5.40;99.90;;;;;;5054487;28;20169;-64
2021/12/24 00:04:17;;;;;;;14.07;8.33;;;5.50;99.90;;;;;;5054329;28;20157;-66
2021/12/24 00:06:42;;;;;;;14.33;8.53;;;5.50;99.90;;;;;;5054206;28;20167;-64
2021/12/24 00:09:09;;;;;;;13.40;8.80;;;5.70;99.90;;;;;;5054267;28;20183;-64
2021/12/24 00:11:37;;;;;;;15.50;8.80;;;5.60;99.90;;;;;;5054226;28;20573;-65
2021/12/24 00:14:06;;;;;;;18.00;8.13;;;5.70;99.90;;;;;;5054168;28;20149;-64
2021/12/24 00:16:49;;;;;;;13.90;7.53;;;5.80;99.90;;;;;;5053815;28;20156;-64
2021/12/24 00:35:29;;;;;;;15.53;7.47;;;5.90;99.90;;;;;;5053580;28;20301;-64
2021/12/24 00:37:55;;;;;;;14.50;8.17;;;5.90;99.90;;;;;;5054125;28;20200;-64
2021/12/24 00:40:21;;;;;;;13.17;8.30;;;6.00;99.90;;;;;;5054304;28;20618;-64
2021/12/24 00:42:55;;;;;;;13.00;8.70;;;5.90;99.90;;;;;;5054005;28;20164;-64
2021/12/24 00:45:28;;;;;;;13.93;8.03;;;6.00;99.90;;;;;;5053637;28;20602;-64
2021/12/24 00:47:55;;;;;;;14.60;8.40;;;5.90;99.90;;;;;;5054044;28;20167;-65
2021/12/24 00:50:25;;;;;;;17.60;8.20;;;6.00;99.90;;;;;;5053892;28;20223;-63
2021/12/24 00:52:56;;;;;;;15.27;7.43;;;6.20;99.90;;;;;;5054202;28;20181;-65
2021/12/24 00:55:26;;;;;;;15.63;8.33;;;6.10;99.90;;;;;;5053777;28;20168;-64
2021/12/24 00:57:57;;;;;;;13.53;8.67;;;6.10;99.90;;;;;;5053835;28;20288;-64
2021/12/24 01:00:36;;;;;;;15.87;8.60;;;6.10;99.90;;;;;;5053773;28;20197;-64
2021/12/24 01:03:04;;;;;;;13.23;8.23;;;6.00;99.90;;;;;;5053346;28;20514;-65
2021/12/24 01:05:31;;;;;;;13.50;8.40;;;5.90;99.90;;;;;;5053435;28;20612;-65
2021/12/24 01:07:57;;;;;;;12.93;8.67;;;6.00;99.90;;;;;;5053329;28;20250;-65
2021/12/24 01:10:30;;;;;;;15.77;8.17;;;6.10;99.90;;;;;;5053703;28;20251;-64
2021/12/24 01:12:56;;;;;;;11.93;7.60;;;6.00;99.90;;;;;;5053899;28;20162;-64
2021/12/24 01:15:22;;;;;;;17.60;7.80;;;6.00;99.90;;;;;;5053994;28;20242;-64
2021/12/24 01:25:56;;;;;;;12.73;7.80;;;6.10;99.90;;;;;;5053919;28;20252;-64
2021/12/24 01:29:38;;;;;;;14.67;8.73;;;6.20;99.90;;;;;;5054397;28;20165;-64
2021/12/24 01:39:52;;;;;;;13.67;8.37;;;6.20;99.90;;;;;;5057542;28;20175;-65
2021/12/24 01:45:17;;;;;;;13.47;7.93;;;6.20;99.90;;;;;;5057148;28;20616;-63
2021/12/24 01:47:44;;;;;;;13.90;8.33;;;6.30;99.90;;;;;;5057088;28;20514;-64
2021/12/24 01:50:09;;;;;;;17.17;8.67;;;6.20;99.90;;;;;;5056680;28;20171;-64
2021/12/24 01:52:35;;;;;;;16.27;7.87;;;6.30;99.90;;;;;;5056964;28;20260;-64
2021/12/24 01:55:01;;;;;;;12.83;7.00;;;6.30;99.90;;;;;;5055409;28;20175;-64
2021/12/24 01:57:27;;;;;;;12.63;7.50;;;6.30;99.90;;;;;;5056938;28;20197;-64
2021/12/24 01:59:53;;;;;;;9.27;6.13;;;6.40;99.90;;;;;;5057196;28;20607;-64
2021/12/24 02:02:18;;;;;;;11.53;6.47;;;6.40;99.90;;;;;;5056706;28;20192;-64
2021/12/24 02:04:44;;;;;;;11.60;6.03;;;6.50;99.90;;;;;;5056989;28;20593;-64
2021/12/24 02:07:10;;;;;;;9.80;6.20;;;6.50;99.90;;;;;;5057643;28;20277;-64
2021/12/24 02:09:36;;;;;;;11.23;5.93;;;6.60;99.90;;;;;;5057225;28;20168;-64
2021/12/24 02:12:06;;;;;;;9.87;6.07;;;6.60;99.90;;;;;;5056950;28;20247;-65
2021/12/24 02:14:36;;;;;;;8.97;5.47;;;6.70;99.90;;;;;;5056699;28;20161;-64
2021/12/24 02:30:29;;;;;;;7.57;5.00;;;6.80;99.90;;;;;;5060999;28;20185;-65
2021/12/24 02:32:54;;;;;;;6.63;3.67;;;6.80;99.90;;;;;;5062094;28;20528;-67
2021/12/24 02:35:20;;;;;;;10.77;4.07;;;6.70;99.90;;;;;;5060355;28;20541;-66
2021/12/24 02:37:46;;;;;;;5.87;4.03;;;6.90;99.90;;;;;;5057361;28;20267;-63
2021/12/24 02:40:12;;;;;;;7.40;3.60;;;6.90;99.90;;;;;;5056558;28;20229;-65
2021/12/24 02:42:38;;;;;;;5.40;3.70;;;6.90;99.90;;;;;;5057258;28;20227;-65
2021/12/24 02:45:04;;;;;;;5.60;3.70;;;6.80;99.90;;;;;;5061204;28;20172;-64
2021/12/24 02:55:16;;;;;;;7.27;4.70;;;6.90;99.90;;;;;;5056072;28;20163;-65
2021/12/24 02:57:42;;;;;;;3.53;2.80;;;6.90;99.90;;;;;;5056012;28;20263;-64
2021/12/24 03:00:16;;;;;;;4.17;2.93;;;7.00;99.90;;;;;;5056332;28;20163;-64
2021/12/24 03:02:46;;;;;;;3.50;2.83;;;7.00;99.90;;;;;;5055782;28;20510;-64
2021/12/24 03:05:14;;;;;;;4.03;2.77;;;7.00;99.90;;;;;;5054565;28;20623;-65
2021/12/24 03:07:41;;;;;;;3.93;2.70;;;7.00;99.90;;;;;;5056220;28;20166;-65
2021/12/24 03:10:12;;;;;;;5.23;3.27;;;6.90;99.90;;;;;;5055417;28;20164;-63
2021/12/24 03:12:39;;;;;;;5.03;3.13;;;6.90;99.90;;;;;;5056145;28;20175;-64
2021/12/24 03:15:07;;;;;;;3.80;2.90;;;7.00;99.90;;;;;;5055557;28;20164;-64
2021/12/24 03:17:33;;;;;;;5.13;2.53;;;6.90;99.90;;;;;;5056093;28;20320;-64
2021/12/24 03:20:06;;;;;;;3.33;2.50;;;6.90;99.90;;;;;;5055556;28;20216;-64
2021/12/24 03:23:05;;;;;;;8.93;2.90;;;6.90;99.90;;;;;;5055292;28;20664;-64
2021/12/24 03:25:20;;;;;;;3.83;2.67;;;6.90;99.90;;;;;;5054768;28;20178;-64
2021/12/24 03:27:45;;;;;;;4.37;2.77;;;6.90;99.90;;;;;;5055097;28;20506;-64
2021/12/24 03:30:11;;;;;;;4.07;2.67;;;6.90;99.90;;;;;;5055283;28;20164;-63
2021/12/24 03:32:37;;;;;;;2.40;2.20;;;7.00;99.90;;;;;;5054340;28;20197;-64
2021/12/24 03:35:04;;;;;;;3.13;2.33;;;7.00;99.90;;;;;;5054802;28;20220;-63
2021/12/24 03:37:30;;;;;;;3.33;2.40;;;7.00;99.90;;;;;;5054843;28;20194;-65
2021/12/24 03:39:55;;;;;;;4.27;1.97;;;7.00;99.90;;;;;;5053996;28;20237;-64
2021/12/24 03:42:22;;;;;;;2.97;2.40;;;7.00;99.90;;;;;;5055087;28;20270;-63
2021/12/24 03:44:56;;;;;;;2.20;2.00;;;7.00;99.90;;;;;;5055050;28;20656;-63
2021/12/24 03:47:22;;;;;;;2.30;2.10;;;7.00;99.90;;;;;;5055299;28;20254;-64
2021/12/24 03:54:58;;;;;;;2.23;1.67;;;7.00;99.90;;;;;;5054649;28;20192;-65
2021/12/24 03:57:26;;;;;;;5.43;2.00;;;7.00;99.90;;;;;;5055299;28;20239;-64
2021/12/24 03:59:53;;;;;;;2.10;1.80;;;7.10;99.90;;;;;;5055231;28;20177;-65
2021/12/24 04:02:19;;;;;;;2.30;1.67;;;7.00;99.90;;;;;;5054963;28;20166;-64
2021/12/24 04:04:45;;;;;;;2.13;1.43;;;7.10;99.90;;;;;;5055260;28;20173;-64
2021/12/24 04:07:11;;;;;;;2.27;1.80;;;7.10;99.90;;;;;;5055053;28;20188;-64
2021/12/24 04:09:40;;;;;;;2.27;1.67;;;7.10;99.90;;;;;;5058051;28;20184;-64
2021/12/24 04:12:06;;;;;;;1.90;1.63;;;7.00;99.90;;;;;;5060510;28;20155;-64
2021/12/24 04:14:32;;;;;;;2.10;1.90;;;7.00;99.90;;;;;;5054810;28;20611;-64
2021/12/24 04:16:57;;;;;;;1.80;1.70;;;7.00;99.90;;;;;;5054291;28;20210;-63
2021/12/24 04:24:51;;;;;;;2.10;1.70;;;7.00;99.90;;;;;;5054239;28;20210;-63
2021/12/24 04:25:08;;;;;;;1.97;1.70;;;7.10;99.90;;;;;;5053912;28;20515;-65
2021/12/24 04:27:34;;;;;;;1.93;1.40;;;7.00;99.90;;;;;;5054306;28;20167;-64
2021/12/24 04:30:08;;;;;;;1.53;1.33;;;7.00;99.90;;;;;;5054732;28;20507;-64
2021/12/24 04:33:23;;;;;;;3.87;1.40;;;7.00;99.90;;;;;;5054457;28;20665;-64
2021/12/24 04:51:48;;;;;;;1.70;1.50;;;7.00;99.90;;;;;;5054115;28;20298;-64
2021/12/24 05:05:21;;;;;;;1.17;1.10;;;7.20;99.90;;;;;;5054214;28;20226;-64
2021/12/24 05:10:15;;;;;;;1.50;1.40;;;7.20;99.90;;;;;;5053966;28;20164;-65
2021/12/24 05:12:41;;;;;;;1.50;1.33;;;7.20;99.90;;;;;;5053858;28;20164;-65
2021/12/24 05:15:09;;;;;;;1.73;1.60;;;7.20;99.90;;;;;;5053863;28;20168;-65
2021/12/24 05:17:53;;;;;;;1.20;1.10;;;7.30;99.90;;;;;;5053126;28;20191;-64
2021/12/24 05:23:02;;;;;;;1.90;1.50;;;7.20;99.90;;;;;;5053211;28;20268;-64
2021/12/24 05:25:28;;;;;;;1.93;1.60;;;7.30;99.90;;;;;;5053570;28;20165;-65
2021/12/24 05:27:55;;;;;;;2.13;1.93;;;7.20;99.90;;;;;;5053085;28;20175;-65
2021/12/24 05:30:23;;;;;;;2.30;1.70;;;7.30;99.90;;;;;;5053460;28;20165;-64
2021/12/24 05:32:48;;;;;;;1.27;1.17;;;7.20;99.90;;;;;;5053399;28;20166;-65
2021/12/24 05:35:14;;;;;;;1.83;1.67;;;7.30;99.90;;;;;;5054000;28;20656;-64
2021/12/24 05:37:40;;;;;;;1.83;1.50;;;7.30;99.90;;;;;;5055712;28;20208;-64
2021/12/24 05:40:07;;;;;;;2.30;1.73;;;7.30;99.90;;;;;;5053998;28;20702;-65
2021/12/24 05:42:33;;;;;;;3.43;1.93;;;7.30;99.90;;;;;;5052951;28;20165;-63
2021/12/24 05:45:05;;;;;;;2.13;1.70;;;7.30;99.90;;;;;;5052576;28;20493;-64
2021/12/24 05:47:32;;;;;;;2.60;1.70;;;7.30;99.90;;;;;;5053243;28;20166;-63
2021/12/24 05:49:58;;;;;;;3.53;2.23;;;7.30;99.90;;;;;;5053502;28;20176;-64
2021/12/24 05:52:24;;;;;;;2.70;1.90;;;7.40;99.90;;;;;;5052873;28;20227;-65
2021/12/24 05:54:50;;;;;;;3.07;2.10;;;7.40;99.90;;;;;;5051980;28;20391;-64
2021/12/24 05:57:15;;;;;;;3.03;2.47;;;7.40;99.90;;;;;;5052553;28;20626;-64
2021/12/24 05:59:41;;;;;;;3.17;2.30;;;7.40;99.90;;;;;;5053463;28;20196;-64
2021/12/24 06:02:07;;;;;;;3.27;2.43;;;7.40;99.90;;;;;;5052987;28;20164;-64
2021/12/24 06:04:33;;;;;;;3.00;2.37;;;7.50;99.90;;;;;;5052872;28;20485;-66
2021/12/24 06:06:59;;;;;;;4.57;2.80;;;7.50;99.90;;;;;;5052431;28;20213;-65
2021/12/24 06:09:25;;;;;;;3.87;2.77;;;7.50;99.90;;;;;;5051192;28;20184;-66
2021/12/24 06:11:50;;;;;;;4.10;2.83;;;7.40;99.90;;;;;;5052850;28;20198;-65
2021/12/24 06:14:16;;;;;;;3.23;2.70;;;7.40;99.90;;;;;;5052284;28;20193;-64
2021/12/24 06:16:58;;;;;;;4.03;2.90;;;7.50;99.90;;;;;;5056408;28;20162;-66
2021/12/24 06:19:26;;;;;;;3.33;2.90;;;7.50;99.90;;;;;;5055259;28;20646;-65
2021/12/24 06:21:52;;;;;;;3.80;3.17;;;7.40;99.90;;;;;;5056443;28;20187;-65
2021/12/24 06:24:19;;;;;;;3.70;3.10;;;7.40;99.90;;;;;;5056271;28;20164;-64
2021/12/24 06:26:45;;;;;;;4.30;3.43;;;7.40;99.90;;;;;;5056586;28;20157;-66
2021/12/24 06:29:11;;;;;;;5.13;3.97;;;7.50;99.90;;;;;;5055843;28;20506;-65
2021/12/24 06:31:36;;;;;;;5.10;3.90;;;7.60;99.90;;;;;;5056636;28;20598;-66
2021/12/24 06:34:02;;;;;;;4.50;3.43;;;7.60;99.90;;;;;;5056873;28;20666;-63
2021/12/24 06:36:31;;;;;;;3.43;2.93;;;7.70;99.90;;;;;;5056700;28;20557;-65
2021/12/24 06:38:56;;;;;;;6.93;4.47;;;7.70;99.90;;;;;;5056988;28;20189;-65
2021/12/24 06:41:22;;;;;;;4.87;3.47;;;7.70;99.90;;;;;;5056991;28;20186;-65
2021/12/24 06:43:48;;;;;;;4.67;3.77;;;7.80;99.90;;;;;;5057218;28;20247;-65
2021/12/24 06:46:13;;;;;;;6.40;4.50;;;7.80;99.90;;;;;;5057109;28;20178;-64
2021/12/24 06:52:02;;;;;;;7.67;5.07;;;7.80;99.90;;;;;;5057575;28;20233;-64
2021/12/24 06:54:29;;;;;;;4.90;4.30;;;7.80;99.90;;;;;;5056629;28;20175;-64
2021/12/24 06:56:55;;;;;;;7.13;4.57;;;7.80;99.90;;;;;;5054983;28;20493;-65
2021/12/24 06:59:21;;;;;;;6.13;4.60;;;7.80;99.90;;;;;;5057541;28;20178;-64
2021/12/24 07:01:47;;;;;;;5.60;4.13;;;7.90;99.90;;;;;;5059031;28;20221;-64
2021/12/24 07:04:12;;;;;;;5.67;4.30;;;7.80;99.90;;;;;;5058760;28;20170;-64
2021/12/24 07:06:45;;;;;;;6.07;4.67;;;7.80;99.90;;;;;;5055955;28;20265;-65
2021/12/24 07:09:14;;;;;;;8.07;5.50;;;7.80;99.90;;;;;;5055038;28;20442;-64
2021/12/24 07:11:41;;;;;;;5.63;4.17;;;7.80;99.90;;;;;;5055296;28;20480;-64
2021/12/24 07:14:06;;;;;;;6.00;4.43;;;7.80;99.90;;;;;;5056420;28;20156;-66
2021/12/24 07:16:32;;;;;;;6.83;4.50;;;7.80;99.90;;;;;;5056578;28;20170;-65
2021/12/24 07:18:58;;;;;;;6.93;4.57;;;7.90;99.90;;;;;;5055810;28;20616;-65
2021/12/24 07:21:23;;;;;;;8.10;5.00;;;7.90;99.90;;;;;;5055568;28;20166;-64
2021/12/24 07:23:49;;;;;;;5.37;3.93;;;7.90;99.90;;;;;;5055997;28;20254;-64
2021/12/24 07:26:17;;;;;;;5.87;4.10;;;8.00;99.90;;;;;;5054441;28;20559;-65
2021/12/24 07:28:43;;;;;;;6.70;4.40;;;8.00;99.90;;;;;;5054249;28;20171;-64
2021/12/24 07:31:08;;;;;;;6.17;4.37;;;8.10;99.90;;;;;;5056058;28;20172;-64
2021/12/24 07:33:34;;;;;;;8.67;4.43;;;8.10;99.90;;;;;;5056107;28;20183;-64
2021/12/24 07:36:00;;;;;;;6.63;4.10;;;8.10;99.90;;;;;;5055757;28;20260;-64
2021/12/24 07:38:26;;;;;;;5.53;4.00;;;8.10;99.90;;;;;;5055083;28;20577;-65
2021/12/24 07:40:51;;;;;;;6.07;4.47;;;8.10;99.90;;;;;;5055328;28;20179;-65
2021/12/24 07:43:17;;;;;;;4.90;3.73;;;8.10;99.90;;;;;;5054202;28;20530;-65
2021/12/24 07:45:45;;;;;;;4.60;3.70;;;8.20;99.90;;;;;;5055451;28;20167;-65
2021/12/24 07:48:12;;;;;;;6.47;3.73;;;8.20;99.90;;;;;;5054571;28;20519;-64
2021/12/24 07:53:10;;;;;;;4.93;3.63;;;8.30;99.90;;;;;;5056312;28;20181;-65
2021/12/24 07:55:37;;;;;;;4.23;3.47;;;8.40;99.90;;;;;;5056437;28;20599;-66
2021/12/24 07:58:05;;;;;;;4.07;3.40;;;8.40;99.90;;;;;;5055272;28;20541;-65
2021/12/24 08:00:31;;;;;;;4.33;3.47;;;8.40;99.90;;;;;;5056000;28;20168;-64
2021/12/24 08:03:01;;;;;;;6.60;3.67;;;8.40;99.90;;;;;;5055873;28;20201;-66
2021/12/24 08:05:27;;;;;;;3.53;2.97;;;8.40;99.90;;;;;;5055268;28;20168;-65
2021/12/24 08:07:54;;;;;;;6.30;4.17;;;8.40;99.90;;;;;;5054567;28;20288;-65
2021/12/24 08:10:23;;;;;;;5.30;3.10;;;8.40;99.90;;;;;;5055246;28;20197;-65
2021/12/24 08:12:50;;;;;;;5.57;3.40;;;8.40;99.90;;;;;;5054896;28;20195;-65
2021/12/24 08:15:17;;;;;;;4.47;3.70;;;8.40;99.90;;;;;;5053175;28;20171;-65
2021/12/24 08:17:44;;;;;;;3.57;2.60;;;8.40;99.90;;;;;;5054983;28;20199;-65
2021/12/24 08:20:12;;;;;;;4.40;3.30;;;8.50;99.90;;;;;;5054156;28;20163;-65
2021/12/24 08:22:38;;;;;;;4.83;3.23;;;8.50;99.90;;;;;;5055021;28;20172;-68
2021/12/24 08:25:06;;;;;;;4.33;3.20;;;8.50;99.90;;;;;;5055134;28;20525;-66
2021/12/24 08:27:33;;;;;;;6.87;3.67;;;8.60;99.90;;;;;;5053819;28;20218;-65
2021/12/24 08:29:59;;;;;;;5.20;3.50;;;8.60;99.90;;;;;;5055687;28;20183;-66
2021/12/24 08:32:24;;;;;;;5.03;3.50;;;8.70;99.90;;;;;;5054359;28;20194;-66
2021/12/24 08:34:52;;;;;;;4.23;3.43;;;8.70;99.90;;;;;;5054204;28;20232;-65
2021/12/24 08:37:18;;;;;;;3.93;3.20;;;8.70;99.90;;;;;;5054176;28;20256;-64
2021/12/24 08:39:44;;;;;;;4.17;2.97;;;8.80;99.90;;;;;;5054487;28;20198;-66
2021/12/24 08:42:09;;;;;;;4.47;3.20;;;8.90;99.90;;;;;;5054473;28;20179;-63
2021/12/24 08:44:37;;;;;;;3.40;2.60;;;8.90;99.90;;;;;;5054475;28;20160;-64
2021/12/24 08:47:04;;;;;;;3.33;2.67;;;8.90;99.90;;;;;;5054060;28;20159;-63
2021/12/24 08:49:31;;;;;;;2.80;2.50;;;9.00;99.90;;;;;;5054475;28;20648;-65
2021/12/24 08:51:57;;;;;;;3.63;2.80;;;9.00;99.90;;;;;;5053527;28;20206;-65
2021/12/24 08:54:24;;;;;;;3.40;2.53;;;9.10;99.90;;;;;;5053763;28;20179;-65
2021/12/24 08:56:51;;;;;;;2.83;2.30;;;9.10;99.90;;;;;;5054320;28;20161;-66
2021/12/24 08:59:16;;;;;;;7.17;2.80;;;9.10;99.90;;;;;;5053960;28;20610;-67
2021/12/24 09:01:43;;;;;;;3.80;2.67;;;9.20;99.90;;;;;;5053884;28;20187;-67
2021/12/24 09:04:13;;;;;;;3.43;2.40;;;9.20;99.90;;;;;;5054811;28;20163;-68
2021/12/24 09:06:40;;;;;;;2.40;2.20;;;9.20;99.90;;;;;;5054583;28;20168;-65
2021/12/24 09:09:07;;;;;;;3.30;2.40;;;9.20;99.90;;;;;;5053901;28;20177;-66
2021/12/24 09:11:34;;;;;;;3.43;2.50;;;9.20;99.90;;;;;;5054091;28;20191;-67
2021/12/24 09:14:00;;;;;;;3.30;2.17;;;9.30;99.90;;;;;;5053729;28;20577;-67
2021/12/24 09:16:26;;;;;;;2.73;1.93;;;9.20;99.90;;;;;;5053819;28;20175;-66
2021/12/24 09:18:59;;;;;;;2.90;2.20;;;9.20;99.90;;;;;;5053563;28;20192;-65
2021/12/24 09:21:26;;;;;;;3.57;2.47;;;9.20;99.90;;;;;;5052996;28;20164;-66
2021/12/24 09:23:53;;;;;;;3.70;2.20;;;9.30;99.90;;;;;;5053320;28;20171;-65
2021/12/24 09:26:26;;;;;;;3.67;2.43;;;9.40;99.90;;;;;;5053223;28;20160;-64
2021/12/24 09:28:52;;;;;;;2.40;1.90;;;9.40;99.90;;;;;;5053177;28;20164;-66
2021/12/24 09:31:17;;;;;;;2.10;1.83;;;9.50;99.90;;;;;;5053670;28;20175;-66
2021/12/24 09:33:43;;;;;;;2.17;1.90;;;9.50;99.90;;;;;;5053469;28;20180;-68
2021/12/24 09:36:09;;;;;;;2.57;1.93;;;9.50;99.90;;;;;;5053478;28;20630;-65
2021/12/24 09:38:35;;;;;;;3.37;2.50;;;9.60;99.90;;;;;;5053449;28;20228;-66
2021/12/24 09:41:01;;;;;;;4.80;2.00;;;9.70;99.90;;;;;;5052260;28;20184;-64
2021/12/24 09:43:26;;;;;;;3.30;2.50;;;9.80;99.90;;;;;;5053287;28;20481;-65
2021/12/24 09:45:52;;;;;;;3.07;2.50;;;9.90;99.90;;;;;;5053360;28;20234;-66
2021/12/24 09:48:18;;;;;;;3.63;2.70;;;10.00;99.90;;;;;;5052512;28;20214;-68
2021/12/24 09:50:45;;;;;;;2.80;2.20;;;10.10;99.90;;;;;;5056666;28;20242;-66
2021/12/24 09:53:11;;;;;;;2.03;1.83;;;10.10;99.90;;;;;;5059187;28;20198;-66
2021/12/24 09:55:37;;;;;;;3.20;2.10;;;10.10;99.90;;;;;;5059471;28;20168;-67
2021/12/24 09:58:02;;;;;;;3.23;2.30;;;10.10;99.90;;;;;;5057141;28;20275;-66
2021/12/24 10:00:29;;;;;;;1.90;1.63;;;10.10;99.90;;;;;;5056568;28;20647;-65
2021/12/24 10:02:58;;;;;;;3.10;1.80;;;10.10;99.90;;;;;;5057450;28;20168;-65
2021/12/24 10:05:32;;;;;;;2.53;1.70;;;10.10;99.90;;;;;;5056768;28;20161;-64
2021/12/24 10:08:07;;;;;;;2.37;2.03;;;10.10;99.90;;;;;;5057447;28;20247;-66
2021/12/24 10:10:35;;;;;;;1.93;1.73;;;10.20;99.90;;;;;;5057061;28;20591;-66
2021/12/24 10:13:31;;;;;;;2.23;1.90;;;10.30;99.90;;;;;;5057020;28;20190;-64
2021/12/24 10:16:07;;;;;;;2.10;1.60;;;10.30;99.90;;;;;;5056570;28;20287;-65
2021/12/24 10:18:37;;;;;;;2.10;1.60;;;10.40;99.90;;;;;;5056181;28;20225;-64
2021/12/24 10:21:10;;;;;;;1.97;1.40;;;10.50;99.90;;;;;;5056196;28;20175;-66
2021/12/24 10:23:43;;;;;;;2.47;1.97;;;10.40;99.90;;;;;;5056728;28;20263;-62
2021/12/24 10:26:34;;;;;;;3.13;2.20;;;10.40;99.90;;;;;;5056571;28;20175;-65
2021/12/24 10:29:05;;;;;;;1.73;1.60;;;10.40;99.90;;;;;;5056459;28;20256;-66
2021/12/24 10:31:34;;;;;;;2.17;1.73;;;10.50;99.90;;;;;;5056512;28;20164;-64
2021/12/24 10:34:05;;;;;;;1.70;1.50;;;10.60;99.90;;;;;;5056271;28;20674;-63
2021/12/24 10:36:31;;;;;;;2.73;2.03;;;10.70;99.90;;;;;;5056284;28;20338;-64
2021/12/24 10:38:56;;;;;;;1.90;1.70;;;10.80;99.90;;;;;;5055713;28;20696;-64
2021/12/24 10:41:24;;;;;;;2.17;1.67;;;10.80;99.90;;;;;;5055913;28;20164;-64
2021/12/24 10:43:51;;;;;;;2.67;1.80;;;10.90;99.90;;;;;;5055740;28;20166;-64
2021/12/24 10:46:22;;;;;;;2.80;1.83;;;10.80;99.90;;;;;;5056023;28;20164;-65
2021/12/24 10:49:03;;;;;;;2.00;1.53;;;10.90;99.90;;;;;;5055912;28;20631;-64
2021/12/24 10:54:13;;;;;;;1.43;1.33;;;11.00;99.90;;;;;;5055397;28;20182;-64
2021/12/24 10:56:39;;;;;;;3.87;2.20;;;11.00;99.90;;;;;;5056376;28;20247;-65
2021/12/24 10:59:05;;;;;;;2.40;1.60;;;10.90;99.90;;;;;;5055949;28;20192;-64
2021/12/24 11:01:31;;;;;;;2.00;1.70;;;10.90;99.90;;;;;;5055164;28;20511;-64
2021/12/24 11:03:57;;;;;;;2.00;1.50;;;10.90;99.90;;;;;;5055611;28;20171;-65
2021/12/24 11:06:29;;;;;;;3.23;2.00;;;10.90;99.90;;;;;;5055571;28;20264;-65
2021/12/24 11:08:56;;;;;;;2.03;1.63;;;10.90;99.90;;;;;;5055885;28;20194;-64
2021/12/24 11:11:22;;;;;;;1.70;1.60;;;10.90;99.90;;;;;;5055506;28;20255;-64
2021/12/24 11:13:48;;;;;;;4.03;2.03;;;10.90;99.90;;;;;;5055261;28;20192;-64
2021/12/24 11:16:21;;;;;;;3.73;2.10;;;10.90;99.90;;;;;;5055801;28;20570;-65
2021/12/24 11:18:56;;;;;;;2.10;1.87;;;10.80;99.90;;;;;;5055301;28;20262;-64
2021/12/24 11:21:27;;;;;;;2.73;1.73;;;10.80;99.90;;;;;;5061812;28;20233;-65
2021/12/24 11:23:53;;;;;;;1.77;1.57;;;10.80;99.90;;;;;;5054749;28;20164;-64
2021/12/24 11:26:27;;;;;;;1.90;1.70;;;10.70;99.90;;;;;;5054957;28;20444;-64
2021/12/24 11:28:53;;;;;;;2.33;1.43;;;10.70;99.90;;;;;;5055378;28;20636;-64
2021/12/24 11:31:28;;;;;;;2.13;1.37;;;10.70;99.90;;;;;;5055202;28;20199;-64
2021/12/24 11:33:54;;;;;;;2.77;1.50;;;10.60;99.90;;;;;;5055232;28;20175;-63
2021/12/24 11:36:23;;;;;;;2.57;1.70;;;10.60;99.90;;;;;;5055100;28;20190;-63
2021/12/24 11:38:54;;;;;;;3.57;1.70;;;10.50;99.90;;;;;;5054760;28;20189;-64
2021/12/24 11:41:25;;;;;;;5.17;1.77;;;10.60;99.90;;;;;;5055031;28;20172;-65
2021/12/24 11:43:52;;;;;;;2.40;1.63;;;10.50;99.90;;;;;;5054750;28;20171;-65
2021/12/24 11:46:20;;;;;;;2.77;2.10;;;10.50;99.90;;;;;;5054728;28;20166;-64
2021/12/24 11:48:48;;;;;;;2.50;1.63;;;10.50;99.90;;;;;;5054560;28;20267;-64
2021/12/24 11:51:19;;;;;;;2.90;1.87;;;10.50;99.90;;;;;;5054799;28;20168;-64
2021/12/24 11:53:46;;;;;;;2.07;1.60;;;10.40;99.90;;;;;;5054944;28;20164;-64
2021/12/24 11:56:15;;;;;;;2.90;1.90;;;10.40;99.90;;;;;;5054315;28;20168;-65
2021/12/24 11:58:55;;;;;;;3.20;2.00;;;10.40;99.90;;;;;;5054025;28;20195;-64
2021/12/24 12:01:24;;;;;;;2.83;1.60;;;10.40;99.90;;;;;;5054115;28;20615;-64
2021/12/24 12:03:56;;;;;;;2.73;2.17;;;10.40;99.90;;;;;;5054761;28;20604;-63
2021/12/24 12:06:25;;;;;;;4.03;1.90;;;10.40;99.90;;;;;;5053903;28;20519;-63
2021/12/24 12:08:55;;;;;;;3.30;2.00;;;10.30;99.90;;;;;;5054095;28;20700;-63
2021/12/24 12:11:24;;;;;;;1.93;1.73;;;10.30;99.90;;;;;;5054415;28;20220;-63
2021/12/24 12:14:23;;;;;;;2.40;1.70;;;10.30;99.90;;;;;;5052358;28;20168;-64
2021/12/24 12:16:52;;;;;;;4.73;3.00;;;10.30;99.90;;;;;;5054557;28;20158;-63
2021/12/24 12:19:58;;;;;;;6.13;2.30;;;10.30;99.90;;;;;;5055385;28;20192;-65
2021/12/24 12:22:31;;;;;;;2.80;2.07;;;10.20;99.90;;;;;;5055755;28;20192;-63
2021/12/24 12:25:06;;;;;;;2.43;2.20;;;10.20;99.90;;;;;;5056381;28;20263;-63
2021/12/24 12:27:39;;;;;;;3.23;1.73;;;10.30;99.90;;;;;;5055064;28;20173;-64
2021/12/24 12:30:18;;;;;;;2.03;1.70;;;10.30;99.90;;;;;;5057145;28;20171;-63
2021/12/24 12:32:45;;;;;;;3.70;2.50;;;10.20;99.90;;;;;;5053956;28;20180;-64
2021/12/24 12:35:12;;;;;;;1.97;1.77;;;10.30;99.90;;;;;;5053780;28;20232;-62
2021/12/24 12:37:45;;;;;;;2.40;2.00;;;10.30;99.90;;;;;;5054021;28;20294;-63
2021/12/24 12:40:17;;;;;;;4.20;2.03;;;10.30;99.90;;;;;;5053229;28;20223;-64
2021/12/24 12:42:49;;;;;;;2.77;1.83;;;10.30;99.90;;;;;;5053646;28;20251;-63
2021/12/24 12:45:17;;;;;;;5.00;2.10;;;10.30;99.90;;;;;;5054975;28;20156;-63
2021/12/24 12:47:54;;;;;;;3.87;1.83;;;10.40;99.90;;;;;;5058068;28;20252;-63
2021/12/24 12:50:20;;;;;;;2.70;1.93;;;10.40;99.90;;;;;;5053722;28;20156;-63
2021/12/24 12:52:47;;;;;;;3.70;2.10;;;10.50;99.90;;;;;;5053559;28;20243;-63
2021/12/24 12:55:35;;;;;;;3.17;1.97;;;10.50;99.90;;;;;;5053752;28;20185;-64
2021/12/24 12:58:22;;;;;;;1.73;1.53;;;10.50;99.90;;;;;;5053934;28;20678;-64
2021/12/24 13:01:05;;;;;;;3.47;2.07;;;10.50;99.90;;;;;;5053724;28;20616;-63
2021/12/24 13:03:51;;;;;;;3.47;2.00;;;10.50;99.90;;;;;;5053413;28;20677;-63
2021/12/24 13:06:19;;;;;;;9.17;2.23;;;10.60;99.90;;;;;;5053357;28;20238;-63
2021/12/24 13:08:45;;;;;;;3.33;2.03;;;10.60;99.90;;;;;;5053494;28;20468;-63
2021/12/24 13:11:15;;;;;;;4.40;2.30;;;10.60;99.90;;;;;;5053419;28;20172;-64
2021/12/24 13:13:50;;;;;;;4.40;2.30;;;10.50;99.90;;;;;;5053669;28;20211;-64
2021/12/24 13:16:21;;;;;;;3.57;2.33;;;10.50;99.90;;;;;;5053258;28;20155;-64
2021/12/24 13:18:57;;;;;;;2.40;1.83;;;10.40;99.90;;;;;;5053412;28;20192;-63
2021/12/24 13:24:10;;;;;;;3.13;1.97;;;10.40;99.90;;;;;;5052174;28;20172;-64
2021/12/24 13:26:36;;;;;;;4.43;2.07;;;10.50;99.90;;;;;;5052158;28;20176;-64
2021/12/24 13:29:12;;;;;;;2.80;2.20;;;10.40;99.90;;;;;;5053123;28;20217;-64
2021/12/24 13:31:40;;;;;;;2.47;1.93;;;10.40;99.90;;;;;;5053184;28;20164;-63
2021/12/24 13:34:11;;;;;;;1.73;1.60;;;10.30;99.90;;;;;;5053306;28;20228;-63
2021/12/24 13:36:37;;;;;;;4.10;1.90;;;10.20;99.90;;;;;;5035882;28;20195;-63
2021/12/24 13:39:11;;;;;;;2.20;2.00;;;10.20;99.90;;;;;;5054624;28;20672;-64
2021/12/24 13:41:38;;;;;;;3.83;2.07;;;10.20;99.90;;;;;;5057722;28;20175;-64
2021/12/24 13:44:05;;;;;;;3.30;2.20;;;10.20;99.90;;;;;;5058208;28;20232;-64
2021/12/24 13:46:34;;;;;;;2.47;1.93;;;10.20;99.90;;;;;;5057357;28;20228;-63
2021/12/24 13:54:33;;;;;;;2.60;2.10;;;10.10;99.90;;;;;;5052933;28;20167;-64
2021/12/24 13:57:01;;;;;;;3.77;2.13;;;10.10;99.90;;;;;;5052144;28;20243;-64
2021/12/24 13:59:28;;;;;;;4.30;2.50;;;10.10;99.90;;;;;;5052546;28;20259;-64
2021/12/24 14:01:55;;;;;;;2.73;2.00;;;10.10;99.90;;;;;;5052745;28;20153;-62
2021/12/24 14:04:23;;;;;;;3.93;1.90;;;10.00;99.90;;;;;;5052584;28;20176;-64
2021/12/24 14:06:58;;;;;;;3.27;2.43;;;10.10;99.90;;;;;;5052449;28;20169;-63
2021/12/24 14:09:30;;;;;;;4.43;2.40;;;10.00;99.90;;;;;;5052621;28;20247;-63
2021/12/24 14:11:56;;;;;;;4.20;2.40;;;10.00;99.90;;;;;;5055530;28;20183;-64
2021/12/24 14:14:28;;;;;;;3.17;2.40;;;10.00;99.90;;;;;;5054244;28;20276;-63
2021/12/24 14:19:44;;;;;;;4.13;2.60;;;10.00;99.90;;;;;;5052396;28;20168;-63
2021/12/24 14:22:14;;;;;;;3.83;2.43;;;10.00;99.90;;;;;;5052496;28;20160;-64
2021/12/24 14:25:00;;;;;;;2.73;2.03;;;9.90;99.90;;;;;;5052332;28;20195;-63
2021/12/24 14:27:28;;;;;;;2.57;2.27;;;9.80;99.90;;;;;;5052335;28;20199;-63
2021/12/24 14:30:02;;;;;;;2.90;2.30;;;9.80;99.90;;;;;;5052609;28;20184;-63
2021/12/24 14:32:42;;;;;;;3.33;2.60;;;9.70;99.90;;;;;;5052169;28;20643;-64
2021/12/24 14:35:27;;;;;;;3.80;2.60;;;9.70;99.90;;;;;;5051902;28;20620;-64
2021/12/24 14:37:56;;;;;;;5.10;2.30;;;9.60;99.90;;;;;;5054598;28;20298;-65
2021/12/24 14:40:22;;;;;;;3.47;2.33;;;9.50;99.90;;;;;;5056064;28;20184;-64
2021/12/24 14:42:51;;;;;;;4.57;3.00;;;9.60;99.90;;;;;;5056056;28;20164;-63
2021/12/24 14:45:19;;;;;;;2.90;2.43;;;9.50;99.90;;;;;;5056077;28;20187;-64
2021/12/24 14:48:03;;;;;;;4.43;2.70;;;9.50;99.90;;;;;;5056115;28;20164;-64
2021/12/24 14:50:34;;;;;;;4.07;2.27;;;9.50;99.90;;;;;;5056255;28;20488;-64
2021/12/24 14:53:27;;;;;;;4.23;2.60;;;9.40;99.90;;;;;;5057540;28;20179;-64
2021/12/24 14:56:05;;;;;;;3.43;2.30;;;9.30;99.90;;;;;;5057963;28;20202;-63
2021/12/24 14:58:47;;;;;;;4.00;2.83;;;9.30;99.90;;;;;;5057649;28;20233;-63
2021/12/24 15:01:19;;;;;;;5.23;2.97;;;9.20;99.90;;;;;;5058066;28;20183;-65